Time;durP1;ratioP1;P1;durP2;ratioP2;P2;SDS_P1;SDS_P2;PMS_P1;PMS_P2;Temp;Humidity;BMP_temperature;BMP_pressure;BME280_temperature;BME280_humidity;BME280_pressure;Samples;Min_cycle;Max_cycle;Signal;HPM_P1;HPM_P2
2020/12/21 00:01:26;;;;;;;10.50;7.50;;;;;;;1.23;93.53;101611.25;5009534;28;20635;-78
2020/12/21 00:03:52;;;;;;;9.60;7.10;;;;;;;1.26;92.97;101607.88;5008486;28;20568;-78
2020/12/21 00:06:19;;;;;;;10.97;7.87;;;;;;;1.28;93.35;101612.22;5012191;28;20368;-78
2020/12/21 00:08:44;;;;;;;9.70;7.20;;;;;;;1.29;93.53;101607.97;5005383;28;20215;-78
2020/12/21 00:11:10;;;;;;;10.37;7.33;;;;;;;1.30;93.17;101602.88;5008572;28;20223;-78
2020/12/21 00:13:42;;;;;;;12.87;7.77;;;;;;;1.34;93.44;101606.41;5008226;28;20536;-78
2020/12/21 00:16:08;;;;;;;11.47;7.80;;;;;;;1.35;93.61;101604.69;5007099;28;20235;-77
2020/12/21 00:18:34;;;;;;;12.20;7.70;;;;;;;1.36;93.82;101609.03;5006768;28;20207;-78
2020/12/21 00:21:00;;;;;;;11.33;7.50;;;;;;;1.42;93.26;101609.16;5004313;28;20250;-78
2020/12/21 00:23:27;;;;;;;10.03;7.53;;;;;;;1.45;93.41;101609.25;5003678;28;20241;-78
2020/12/21 00:25:52;;;;;;;12.23;7.40;;;;;;;1.49;93.13;101611.06;5004736;28;20752;-78
2020/12/21 00:28:18;;;;;;;10.40;7.60;;;;;;;1.50;93.33;101600.84;5005653;28;20200;-78
2020/12/21 00:30:44;;;;;;;12.20;7.37;;;;;;;1.55;93.19;101606.13;4989966;28;20228;-78
2020/12/21 00:33:13;;;;;;;12.93;7.83;;;;;;;1.57;93.45;101609.59;5010746;28;20218;-78
2020/12/21 00:35:41;;;;;;;10.93;7.47;;;;;;;1.59;93.31;101613.06;5010460;28;20193;-78
2020/12/21 00:38:06;;;;;;;12.20;8.03;;;;;;;1.62;93.20;101605.44;5009693;28;20200;-78
2020/12/21 00:40:33;;;;;;;9.83;7.43;;;;;;;1.64;93.03;101608.91;5009705;28;20270;-78
2020/12/21 00:42:59;;;;;;;12.27;7.77;;;;;;;1.67;93.23;101609.00;5003457;28;20661;-78
2020/12/21 00:45:25;;;;;;;10.67;7.57;;;;;;;1.69;93.45;101609.91;5013775;28;20211;-78
2020/12/21 00:47:51;;;;;;;11.60;7.60;;;;;;;1.72;93.67;101616.81;4994814;28;20208;-78
2020/12/21 00:50:17;;;;;;;11.40;7.37;;;;;;;1.73;93.44;101613.44;4993217;28;20216;-78
2020/12/21 00:52:42;;;;;;;12.87;8.03;;;;;;;1.76;93.42;101610.06;4993131;28;20824;-78
2020/12/21 00:55:08;;;;;;;11.37;7.80;;;;;;;1.76;93.29;101610.94;5010180;28;20227;-78
2020/12/21 00:57:35;;;;;;;10.13;7.30;;;;;;;1.80;93.33;101615.31;5005084;28;20209;-78
2020/12/21 01:00:01;;;;;;;10.30;7.93;;;;;;;1.80;93.68;101617.03;5010560;28;20460;-78
2020/12/21 01:02:27;;;;;;;10.03;7.47;;;;;;;1.79;94.14;101610.13;5004867;28;20205;-78
2020/12/21 01:04:53;;;;;;;9.63;7.33;;;;;;;1.77;94.60;101612.66;5007434;28;20214;-78
2020/12/21 01:07:19;;;;;;;12.53;7.67;;;;;;;1.80;94.10;101622.19;5006996;28;20190;-78
2020/12/21 01:09:46;;;;;;;12.40;7.67;;;;;;;1.79;94.34;101618.72;5007174;28;20232;-78
2020/12/21 01:12:13;;;;;;;10.57;7.40;;;;;;;1.80;94.43;101622.19;4987182;28;20759;-78
2020/12/21 01:14:39;;;;;;;11.03;7.63;;;;;;;1.80;94.40;101623.03;5006418;28;20208;-78
2020/12/21 01:17:05;;;;;;;9.97;7.03;;;;;;;1.81;94.18;101629.03;5007205;28;20212;-78
2020/12/21 01:19:31;;;;;;;10.67;7.57;;;;;;;1.80;94.60;101620.47;4990460;28;20223;-78
2020/12/21 01:21:57;;;;;;;10.27;7.07;;;;;;;1.81;94.60;101629.94;5009348;28;20209;-78
2020/12/21 01:24:23;;;;;;;11.73;8.20;;;;;;;1.79;94.95;101623.84;5005241;28;20204;-78
2020/12/21 01:26:49;;;;;;;11.07;7.63;;;;;;;1.76;94.87;101621.22;5006677;28;20204;-78
2020/12/21 01:29:15;;;;;;;12.30;8.10;;;;;;;1.73;94.93;101626.28;5005270;28;20232;-78
2020/12/21 01:31:42;;;;;;;9.50;6.90;;;;;;;1.73;94.85;101617.72;5007106;28;20199;-78
2020/12/21 01:34:07;;;;;;;11.90;8.27;;;;;;;1.71;94.65;101620.25;5005984;28;20208;-78
2020/12/21 01:36:33;;;;;;;13.37;7.70;;;;;;;1.69;94.61;101617.63;5007410;28;20239;-78
2020/12/21 01:38:59;;;;;;;11.67;7.70;;;;;;;1.69;94.62;101622.75;5006801;28;20227;-78
2020/12/21 01:41:25;;;;;;;10.83;7.73;;;;;;;1.70;94.57;101629.63;5006716;28;20207;-78
2020/12/21 01:43:54;;;;;;;11.63;7.80;;;;;;;1.72;94.38;101629.69;5007788;28;20274;-78
2020/12/21 01:46:20;;;;;;;11.13;7.87;;;;;;;1.73;94.46;101622.84;5007416;28;20425;-78
2020/12/21 01:48:48;;;;;;;12.47;7.80;;;;;;;1.72;94.63;101621.09;5008353;28;20211;-78
2020/12/21 01:51:21;;;;;;;11.63;7.50;;;;;;;1.72;94.56;101618.53;5004632;28;20719;-78
2020/12/21 01:53:47;;;;;;;11.50;7.37;;;;;;;1.70;94.88;101613.34;5009983;28;20565;-78
2020/12/21 01:56:16;;;;;;;11.37;7.37;;;;;;;1.68;94.73;101613.31;5007765;28;20214;-78
2020/12/21 01:58:42;;;;;;;11.07;7.50;;;;;;;1.66;95.01;101611.53;5007034;28;20207;-78
2020/12/21 02:01:08;;;;;;;11.73;7.87;;;;;;;1.63;95.32;101608.88;5005823;28;20200;-78
2020/12/21 02:03:34;;;;;;;12.27;7.63;;;;;;;1.63;95.45;101617.44;5003914;28;20227;-78
2020/12/21 02:06:01;;;;;;;10.67;7.43;;;;;;;1.62;95.21;101618.28;5011636;28;20677;-78
2020/12/21 02:08:26;;;;;;;11.23;7.63;;;;;;;1.60;95.33;101625.09;5005109;28;20198;-78
2020/12/21 02:10:52;;;;;;;11.47;7.63;;;;;;;1.60;95.53;101625.09;5008639;28;20685;-78
2020/12/21 02:13:18;;;;;;;13.93;7.83;;;;;;;1.61;95.69;101618.25;5006536;28;20228;-78
2020/12/21 02:15:44;;;;;;;11.97;7.43;;;;;;;1.62;95.59;101617.41;5008971;28;20212;-78
2020/12/21 02:18:10;;;;;;;12.17;7.70;;;;;;;1.60;95.49;101613.94;5004105;28;20212;-78
2020/12/21 02:20:36;;;;;;;12.33;8.10;;;;;;;1.61;95.59;101613.09;5009837;28;20224;-78
2020/12/21 02:23:02;;;;;;;11.43;7.33;;;;;;;1.60;95.62;101608.78;5002873;28;20529;-78
2020/12/21 02:25:28;;;;;;;12.47;7.13;;;;;;;1.59;95.83;101613.06;4995843;28;20599;-78
2020/12/21 02:27:54;;;;;;;12.43;7.80;;;;;;;1.60;96.15;101619.97;5001545;28;20294;-78
2020/12/21 02:30:20;;;;;;;13.33;7.53;;;;;;;1.63;96.10;101612.31;5011132;28;20212;-78
2020/12/21 02:32:46;;;;;;;11.57;7.60;;;;;;;1.64;96.52;101606.34;5002434;28;20296;-78
2020/12/21 02:35:12;;;;;;;11.70;7.80;;;;;;;1.66;96.58;101604.69;5003660;28;20204;-78
2020/12/21 02:37:39;;;;;;;12.00;7.63;;;;;;;1.70;96.60;101605.63;5005628;28;20216;-78
2020/12/21 02:40:06;;;;;;;13.87;7.53;;;;;;;1.72;96.56;101606.53;5004488;28;20232;-78
2020/12/21 02:42:31;;;;;;;11.97;7.50;;;;;;;1.75;96.75;101609.19;4993312;28;20222;-78
2020/12/21 02:44:57;;;;;;;11.63;7.50;;;;;;;1.76;96.78;101610.06;5006603;28;20287;-78
2020/12/21 02:47:23;;;;;;;13.47;8.20;;;;;;;1.78;96.96;101613.56;5010305;28;20716;-78
2020/12/21 02:49:49;;;;;;;11.10;7.30;;;;;;;1.76;97.25;101610.06;5006438;28;20306;-78
2020/12/21 02:52:15;;;;;;;14.57;8.03;;;;;;;1.74;97.32;101622.88;5006084;28;20232;-77
2020/12/21 02:54:43;;;;;;;14.03;8.43;;;;;;;1.74;97.58;101616.88;5004781;28;20729;-78
2020/12/21 02:57:09;;;;;;;12.73;7.40;;;;;;;1.71;97.88;101617.66;4992326;28;20220;-78
2020/12/21 02:59:34;;;;;;;12.10;7.60;;;;;;;1.72;97.89;101614.25;5013409;28;20224;-78
2020/12/21 03:02:00;;;;;;;11.37;7.47;;;;;;;1.72;98.05;101608.25;5003173;28;20204;-78
2020/12/21 03:04:26;;;;;;;12.33;7.67;;;;;;;1.69;98.45;101609.06;5007623;28;20492;-78
2020/12/21 03:06:52;;;;;;;12.57;7.50;;;;;;;1.69;98.41;101603.91;5005270;28;20608;-78
2020/12/21 03:09:18;;;;;;;10.20;7.40;;;;;;;1.72;98.75;101613.38;5008961;28;20635;-78
2020/12/21 03:11:45;;;;;;;12.73;7.87;;;;;;;1.72;98.98;101609.09;5004380;28;20235;-78
2020/12/21 03:14:11;;;;;;;12.63;7.63;;;;;;;1.72;99.27;101610.81;5010627;28;20620;-78
2020/12/21 03:16:37;;;;;;;12.53;7.90;;;;;;;1.73;99.46;101608.28;5005005;28;20208;-78
2020/12/21 03:19:04;;;;;;;13.53;7.87;;;;;;;1.74;99.60;101614.28;5008246;28;20224;-78
2020/12/21 03:21:30;;;;;;;11.53;7.63;;;;;;;1.78;99.53;101611.00;5004436;28;20599;-78
2020/12/21 03:23:56;;;;;;;12.63;7.57;;;;;;;1.82;99.58;101620.50;5006166;28;20205;-78
2020/12/21 03:26:22;;;;;;;14.50;8.37;;;;;;;1.84;99.67;101613.69;5005113;28;20212;-78
2020/12/21 03:28:49;;;;;;;14.20;8.50;;;;;;;1.87;99.75;101612.06;5007342;28;20208;-78
2020/12/21 03:31:14;;;;;;;13.90;8.20;;;;;;;1.89;99.73;101612.13;5004806;28;20221;-78
2020/12/21 03:33:41;;;;;;;14.30;8.10;;;;;;;1.91;99.50;101625.03;5004412;28;20250;-78
2020/12/21 03:36:07;;;;;;;14.90;8.20;;;;;;;1.94;99.79;101625.09;5005456;28;20601;-78
2020/12/21 03:38:33;;;;;;;14.03;8.30;;;;;;;1.95;99.74;101624.25;5003603;28;20287;-78
2020/12/21 03:40:58;;;;;;;13.97;7.73;;;;;;;1.99;99.39;101626.97;5009701;28;20215;-78
2020/12/21 03:43:24;;;;;;;13.33;7.80;;;;;;;2.00;99.78;101625.25;5004711;28;20224;-78
2020/12/21 03:45:51;;;;;;;14.20;8.50;;;;;;;2.01;99.40;101617.56;5003117;28;20207;-78
2020/12/21 03:48:17;;;;;;;14.43;8.60;;;;;;;2.06;99.44;101622.84;5007180;28;20201;-78
2020/12/21 03:50:43;;;;;;;16.00;8.37;;;;;;;2.06;99.62;101618.56;5010754;28;20282;-78
2020/12/21 03:53:09;;;;;;;13.67;8.20;;;;;;;2.10;99.42;101622.06;5004648;28;20192;-78
2020/12/21 03:55:35;;;;;;;16.00;8.53;;;;;;;2.12;99.04;101622.13;5008947;28;20212;-78
2020/12/21 03:58:01;;;;;;;14.87;8.90;;;;;;;2.12;99.32;101628.13;5005694;28;20258;-78
2020/12/21 04:00:27;;;;;;;14.87;8.93;;;;;;;2.14;99.13;101626.44;5007385;28;20439;-78
2020/12/21 04:02:53;;;;;;;13.90;8.40;;;;;;;2.16;99.13;101631.63;5007323;28;20222;-78
2020/12/21 04:05:19;;;;;;;16.73;8.47;;;;;;;2.16;98.78;101637.66;4991832;28;20267;-78
2020/12/21 04:07:45;;;;;;;13.93;8.20;;;;;;;2.18;98.89;101633.44;4990112;28;20197;-78
2020/12/21 04:10:11;;;;;;;18.37;9.23;;;;;;;2.19;98.57;101624.00;5007953;28;20646;-78
2020/12/21 04:12:37;;;;;;;14.93;8.33;;;;;;;2.20;98.62;101630.88;5010422;28;20204;-78
2020/12/21 04:15:03;;;;;;;16.60;8.90;;;;;;;2.19;98.76;101627.44;5006616;28;20200;-78
2020/12/21 04:17:29;;;;;;;18.57;10.13;;;;;;;2.19;98.81;101629.16;5008583;28;20202;-78
2020/12/21 04:19:56;;;;;;;16.43;9.30;;;;;;;2.20;98.46;101630.88;4993217;28;20332;-78
2020/12/21 04:22:22;;;;;;;17.13;9.23;;;;;;;2.19;98.52;101637.72;5003870;28;20205;-78
2020/12/21 04:24:48;;;;;;;17.17;9.60;;;;;;;2.20;98.82;101638.59;5007357;28;20550;-78
2020/12/21 04:27:14;;;;;;;17.63;9.67;;;;;;;2.18;98.79;101630.84;5008110;28;20243;-78
2020/12/21 04:29:39;;;;;;;16.00;9.63;;;;;;;2.20;98.83;101633.44;5008198;28;20220;-78
2020/12/21 04:32:05;;;;;;;14.93;9.03;;;;;;;2.19;98.71;101635.16;5006048;28;20192;-78
2020/12/21 04:34:31;;;;;;;17.33;9.97;;;;;;;2.20;98.59;101638.59;5012655;28;20657;-78
2020/12/21 04:36:58;;;;;;;17.03;9.50;;;;;;;2.20;98.87;101639.47;5005240;28;20585;-78
2020/12/21 04:39:24;;;;;;;18.50;8.97;;;;;;;2.21;98.61;101637.78;5007874;28;20271;-78
2020/12/21 04:41:51;;;;;;;15.13;9.80;;;;;;;2.21;98.82;101637.78;5007876;28;20204;-78
2020/12/21 04:44:17;;;;;;;18.13;9.37;;;;;;;2.21;98.70;101640.34;5011203;28;20197;-78
2020/12/21 04:46:43;;;;;;;15.60;8.70;;;;;;;2.21;98.83;101636.06;5008492;28;20197;-78
2020/12/21 04:49:10;;;;;;;16.47;9.17;;;;;;;2.19;98.76;101632.59;5006742;28;20358;-78
2020/12/21 04:51:40;;;;;;;16.57;9.53;;;;;;;2.17;98.51;101631.69;5007778;28;20209;-78
2020/12/21 04:54:09;;;;;;;16.50;9.63;;;;;;;2.16;98.69;101631.63;5002832;28;20193;-78
2020/12/21 04:56:35;;;;;;;16.53;9.50;;;;;;;2.14;98.82;101626.44;5011660;28;20205;-78
2020/12/21 04:59:01;;;;;;;15.40;8.70;;;;;;;2.12;98.68;101645.28;5005647;28;20228;-78
2020/12/21 05:01:27;;;;;;;15.00;8.73;;;;;;;2.08;98.44;101640.03;5008761;28;20199;-78
2020/12/21 05:03:53;;;;;;;15.67;9.03;;;;;;;2.07;98.77;101645.16;5008362;28;20201;-78
2020/12/21 05:06:18;;;;;;;15.97;9.20;;;;;;;2.05;98.55;101649.38;5009072;28;20196;-78
2020/12/21 05:08:45;;;;;;;17.07;9.17;;;;;;;2.02;98.91;101639.91;4990778;28;20697;-78
2020/12/21 05:11:12;;;;;;;17.13;9.30;;;;;;;2.00;99.15;101636.41;5008533;28;20260;-78
2020/12/21 05:13:38;;;;;;;15.47;9.03;;;;;;;1.98;99.13;101632.91;4991479;28;20278;-78
2020/12/21 05:16:04;;;;;;;15.87;9.47;;;;;;;1.98;99.14;101642.34;5009190;28;20513;-78
2020/12/21 05:18:31;;;;;;;16.00;8.93;;;;;;;1.96;98.90;101637.16;5004136;28;20282;-78
2020/12/21 05:20:58;;;;;;;17.13;9.67;;;;;;;1.95;98.93;101631.97;5001463;28;20689;-78
2020/12/21 05:23:24;;;;;;;16.20;9.20;;;;;;;1.91;99.27;101633.59;5004531;28;20208;-78
2020/12/21 05:25:58;;;;;;;18.07;9.57;;;;;;;1.87;98.98;101627.50;5000596;28;20776;-78
2020/12/21 05:28:28;;;;;;;17.03;9.33;;;;;;;1.80;98.68;101623.03;5008866;28;20263;-78
2020/12/21 05:30:55;;;;;;;17.83;9.17;;;;;;;1.73;99.00;101631.44;5003633;28;20229;-78
2020/12/21 05:33:22;;;;;;;17.30;9.57;;;;;;;1.62;98.52;101625.13;5008923;28;20200;-78
2020/12/21 05:35:48;;;;;;;18.40;9.50;;;;;;;1.53;98.81;101618.06;5004068;28;20234;-78
2020/12/21 05:38:28;;;;;;;18.27;10.00;;;;;;;1.45;99.15;101616.97;5008606;28;20264;-78
2020/12/21 05:41:06;;;;;;;18.17;9.63;;;;;;;1.37;99.22;101618.44;5001626;28;20590;-78
2020/12/21 05:43:33;;;;;;;17.40;9.60;;;;;;;1.26;99.04;101624.16;5010695;28;20275;-78
2020/12/21 05:46:04;;;;;;;19.10;10.13;;;;;;;1.19;99.36;101616.25;5009247;28;20204;-78
2020/12/21 05:48:32;;;;;;;18.83;9.83;;;;;;;1.08;99.71;101615.94;5010076;28;20213;-78
2020/12/21 05:51:01;;;;;;;17.33;9.17;;;;;;;1.01;100.00;101614.91;5008942;28;20270;-78
2020/12/21 05:53:33;;;;;;;17.43;8.87;;;;;;;0.96;100.00;101608.75;5009996;28;20188;-78
2020/12/21 05:56:00;;;;;;;17.93;10.03;;;;;;;0.90;100.00;101619.72;5006571;28;20216;-78
2020/12/21 05:58:30;;;;;;;16.60;9.57;;;;;;;0.87;100.00;101626.47;5006614;28;20247;-78
2020/12/21 06:00:59;;;;;;;19.03;9.77;;;;;;;0.78;100.00;101621.06;4990444;28;20271;-78
2020/12/21 06:03:36;;;;;;;18.93;9.47;;;;;;;0.76;100.00;101621.03;5006513;28;20215;-78
2020/12/21 06:06:08;;;;;;;18.00;8.70;;;;;;;0.70;100.00;101626.84;5009809;28;20195;-78
2020/12/21 06:08:34;;;;;;;19.83;9.60;;;;;;;0.63;100.00;101631.72;5004848;28;20527;-78
2020/12/21 06:11:08;;;;;;;19.57;9.27;;;;;;;0.56;100.00;101622.97;5008511;28;20255;-78
2020/12/21 06:13:37;;;;;;;19.77;9.50;;;;;;;0.50;100.00;101626.22;5002967;28;20216;-78
2020/12/21 06:16:05;;;;;;;17.50;9.47;;;;;;;0.43;100.00;101626.84;5006956;28;20702;-78
2020/12/21 06:18:31;;;;;;;20.37;10.77;;;;;;;0.42;100.00;101635.34;5002009;28;20201;-78
2020/12/21 06:20:57;;;;;;;17.30;9.63;;;;;;;0.41;100.00;101630.22;5005564;28;20283;-78
2020/12/21 06:23:29;;;;;;;19.90;10.90;;;;;;;0.35;100.00;101636.00;5004485;28;20194;-78
2020/12/21 06:26:07;;;;;;;21.00;10.20;;;;;;;0.36;100.00;101638.59;5001681;28;20664;-78
2020/12/21 06:28:33;;;;;;;20.17;10.23;;;;;;;0.32;100.00;101649.59;5006406;28;20242;-78
2020/12/21 06:31:13;;;;;;;21.63;9.87;;;;;;;0.30;100.00;101641.00;5004504;28;20213;-78
2020/12/21 06:33:39;;;;;;;20.93;10.03;;;;;;;0.34;100.00;101639.41;5009387;28;20213;-78
2020/12/21 06:36:05;;;;;;;18.43;9.67;;;;;;;0.31;100.00;101645.28;5001210;28;20268;-78
2020/12/21 06:38:42;;;;;;;27.37;13.37;;;;;;;0.28;100.00;101634.94;5009688;28;20210;-78
2020/12/21 06:41:13;;;;;;;36.57;15.97;;;;;;;0.22;100.00;101631.31;5005230;28;20207;-78
2020/12/21 06:43:38;;;;;;;34.97;16.00;;;;;;;0.14;100.00;101642.19;5007165;28;20218;-78
2020/12/21 06:46:14;;;;;;;27.97;12.83;;;;;;;0.07;100.00;101647.03;5004679;28;20201;-78
2020/12/21 06:48:40;;;;;;;33.70;15.40;;;;;;;0.00;100.00;101656.25;5006137;28;20224;-78
2020/12/21 06:51:12;;;;;;;26.80;14.03;;;;;;;-0.06;100.00;101662.03;5002351;28;20225;-78
2020/12/21 06:53:38;;;;;;;30.13;13.97;;;;;;;-0.10;100.00;101660.19;5004338;28;20586;-78
2020/12/21 06:56:12;;;;;;;32.67;13.40;;;;;;;-0.10;100.00;101661.88;5007734;28;20308;-78
2020/12/21 06:58:38;;;;;;;29.87;13.83;;;;;;;-0.15;100.00;101671.09;5003887;28;20473;-78
2020/12/21 07:01:04;;;;;;;27.73;12.67;;;;;;;-0.22;100.00;101678.56;5006474;28;20674;-78
2020/12/21 07:03:31;;;;;;;29.97;12.67;;;;;;;-0.23;100.00;101675.94;5004411;28;20200;-78
2020/12/21 07:05:58;;;;;;;21.77;10.67;;;;;;;-0.22;100.00;101677.72;5010234;28;20208;-78
2020/12/21 07:08:24;;;;;;;20.63;10.53;;;;;;;-0.22;100.00;101677.72;5008396;28;20690;-78
2020/12/21 07:10:56;;;;;;;21.17;11.03;;;;;;;-0.23;100.00;101687.09;4986298;28;20232;-78
2020/12/21 07:13:22;;;;;;;22.33;11.00;;;;;;;-0.27;100.00;101684.38;5004177;28;20196;-78
2020/12/21 07:15:48;;;;;;;20.33;10.17;;;;;;;-0.27;100.00;101685.22;5009503;28;20208;-77
2020/12/21 07:18:14;;;;;;;21.57;10.33;;;;;;;-0.25;100.00;101693.84;4987832;28;20306;-78
2020/12/21 07:20:41;;;;;;;22.13;10.67;;;;;;;-0.26;100.00;101684.41;5009344;28;20209;-77
2020/12/21 07:23:06;;;;;;;23.47;11.20;;;;;;;-0.23;100.00;101683.63;5008468;28;20209;-77
2020/12/21 07:25:32;;;;;;;22.23;12.07;;;;;;;-0.25;100.00;101685.28;5009906;28;20631;-77
2020/12/21 07:27:58;;;;;;;24.10;10.93;;;;;;;-0.25;100.00;101683.59;5009271;28;20569;-77
2020/12/21 07:30:25;;;;;;;22.57;10.23;;;;;;;-0.21;100.00;101692.28;5009283;28;20235;-77
2020/12/21 07:32:52;;;;;;;20.17;10.37;;;;;;;-0.21;100.00;101697.41;5007371;28;20209;-77
2020/12/21 07:35:18;;;;;;;23.07;11.03;;;;;;;-0.18;100.00;101694.94;5009834;28;20216;-77
2020/12/21 07:37:44;;;;;;;20.77;10.23;;;;;;;-0.17;100.00;101685.56;5016100;28;20212;-77
2020/12/21 07:40:19;;;;;;;22.23;11.40;;;;;;;-0.18;100.00;101700.06;5010414;28;20704;-77
2020/12/21 07:42:54;;;;;;;22.10;11.10;;;;;;;-0.15;100.00;101691.63;5011185;28;20208;-77
2020/12/21 07:45:23;;;;;;;22.37;11.27;;;;;;;-0.15;100.00;101684.78;5008551;28;20214;-77
2020/12/21 07:47:49;;;;;;;19.60;9.93;;;;;;;-0.12;100.00;101687.47;5012779;28;20204;-77
2020/12/21 07:50:15;;;;;;;22.47;10.47;;;;;;;-0.13;100.00;101687.41;5006819;28;20220;-77
2020/12/21 07:52:41;;;;;;;19.10;10.03;;;;;;;-0.08;100.00;101701.25;5013091;28;20208;-77
2020/12/21 07:55:10;;;;;;;19.27;9.93;;;;;;;-0.05;100.00;101702.25;5009622;28;20215;-77
2020/12/21 07:57:36;;;;;;;21.63;10.37;;;;;;;-0.02;100.00;101709.16;5011605;28;20255;-77
2020/12/21 08:00:02;;;;;;;22.17;10.60;;;;;;;0.05;100.00;101708.53;5008818;28;20216;-77
2020/12/21 08:02:28;;;;;;;21.97;10.03;;;;;;;0.11;100.00;101710.47;4996795;28;20205;-77
2020/12/21 08:04:54;;;;;;;20.90;11.07;;;;;;;0.15;100.00;101710.59;5008172;28;20762;-77
2020/12/21 08:07:26;;;;;;;29.10;13.37;;;;;;;0.16;100.00;101702.09;5008048;28;20712;-77
2020/12/21 08:09:52;;;;;;;27.03;12.87;;;;;;;0.21;100.00;101706.50;5011993;28;20740;-77
2020/12/21 08:12:19;;;;;;;25.23;12.20;;;;;;;0.25;100.00;101709.22;5005123;28;20246;-77
2020/12/21 08:14:45;;;;;;;27.97;13.00;;;;;;;0.27;100.00;101715.28;5012923;28;20673;-77
2020/12/21 08:17:12;;;;;;;28.23;13.17;;;;;;;0.27;100.00;101706.72;5006256;28;20701;-77
2020/12/21 08:19:46;;;;;;;28.00;12.73;;;;;;;0.25;100.00;101706.66;5017007;28;20218;-77
2020/12/21 08:22:12;;;;;;;26.10;11.93;;;;;;;0.27;100.00;101714.41;5006880;28;20254;-77
2020/12/21 08:24:37;;;;;;;26.00;11.50;;;;;;;0.25;100.00;101718.63;5009270;28;20197;-76
2020/12/21 08:27:05;;;;;;;27.63;12.47;;;;;;;0.23;100.00;101715.13;5008474;28;20213;-77
2020/12/21 08:29:31;;;;;;;23.90;11.90;;;;;;;0.23;100.00;101710.00;5010802;28;20307;-77
2020/12/21 08:31:57;;;;;;;26.03;12.23;;;;;;;0.24;100.00;101714.31;5007868;28;20216;-77
2020/12/21 08:34:23;;;;;;;26.10;11.23;;;;;;;0.24;100.00;101715.16;5011126;28;20197;-77
2020/12/21 08:36:50;;;;;;;25.33;11.00;;;;;;;0.26;100.00;101710.09;4989264;28;20561;-77
2020/12/21 08:39:18;;;;;;;25.40;11.33;;;;;;;0.28;100.00;101716.16;5004686;28;20224;-77
2020/12/21 08:41:46;;;;;;;30.03;12.83;;;;;;;0.31;100.00;101723.94;5013881;28;20209;-77
2020/12/21 08:44:15;;;;;;;28.63;12.30;;;;;;;0.35;100.00;101721.56;5007742;28;20205;-76
2020/12/21 08:46:46;;;;;;;26.63;11.67;;;;;;;0.41;100.00;101726.00;5012393;28;20207;-77
2020/12/21 08:49:12;;;;;;;27.33;12.33;;;;;;;0.42;100.00;101722.59;5007034;28;20224;-77
2020/12/21 08:51:38;;;;;;;23.73;11.47;;;;;;;0.42;100.00;101720.03;5013714;28;20629;-77
2020/12/21 08:54:04;;;;;;;23.90;9.90;;;;;;;0.48;100.00;101717.69;5004616;28;20213;-77
2020/12/21 08:56:30;;;;;;;27.73;13.80;;;;;;;0.51;100.00;101717.78;5010375;28;20201;-77
2020/12/21 08:58:56;;;;;;;30.53;14.80;;;;;;;0.57;100.00;101723.09;5008236;28;20227;-77
2020/12/21 09:01:22;;;;;;;24.93;11.60;;;;;;;0.65;100.00;101720.81;5005651;28;20198;-77
2020/12/21 09:03:48;;;;;;;26.77;12.07;;;;;;;0.69;100.00;101719.22;5005934;28;20201;-77
2020/12/21 09:06:19;;;;;;;24.53;11.03;;;;;;;0.76;100.00;101721.16;5010598;28;20678;-77
2020/12/21 09:08:45;;;;;;;20.53;9.60;;;;;;;0.82;100.00;101723.03;5008665;28;20519;-77
2020/12/21 09:11:11;;;;;;;23.63;11.20;;;;;;;0.82;100.00;101723.03;5004378;28;20648;-77
2020/12/21 09:13:40;;;;;;;21.90;9.97;;;;;;;0.84;100.00;101719.66;5006948;28;20224;-77
2020/12/21 09:16:06;;;;;;;25.57;10.10;;;;;;;0.81;100.00;101716.13;5003398;28;20682;-77
2020/12/21 09:18:32;;;;;;;24.93;10.07;;;;;;;0.82;100.00;101718.75;5005888;28;20192;-77
2020/12/21 09:20:58;;;;;;;21.87;9.80;;;;;;;0.82;100.00;101718.75;5008207;28;20704;-77
2020/12/21 09:23:24;;;;;;;28.97;11.33;;;;;;;0.84;100.00;101726.50;5004687;28;20262;-77
2020/12/21 09:25:50;;;;;;;23.70;9.50;;;;;;;0.86;100.00;101730.00;5008644;28;20197;-77
2020/12/21 09:28:16;;;;;;;25.53;10.43;;;;;;;0.86;100.00;101720.63;5005665;28;20734;-77
2020/12/21 09:30:42;;;;;;;31.13;12.63;;;;;;;0.89;100.00;101725.81;5009497;28;20228;-77
2020/12/21 09:33:07;;;;;;;27.93;11.13;;;;;;;0.96;100.00;101728.59;5004269;28;20704;-77
2020/12/21 09:35:33;;;;;;;26.10;11.83;;;;;;;1.02;100.00;101721.06;5010198;28;20205;-77
2020/12/21 09:38:00;;;;;;;28.57;11.23;;;;;;;1.05;100.00;101724.59;4988683;28;20776;-77
2020/12/21 09:40:26;;;;;;;26.50;10.97;;;;;;;1.06;100.00;101720.34;5010225;28;20311;-77
2020/12/21 09:42:52;;;;;;;25.13;11.40;;;;;;;1.06;100.00;101721.22;5003952;28;20201;-77
2020/12/21 09:45:18;;;;;;;28.20;11.67;;;;;;;1.05;100.00;101723.72;4993843;28;20279;-77
2020/12/21 09:47:44;;;;;;;30.10;11.53;;;;;;;1.07;100.00;101716.94;5004231;28;20768;-77
2020/12/21 09:50:10;;;;;;;30.70;12.37;;;;;;;1.08;100.00;101711.84;5008944;28;20223;-77
2020/12/21 09:52:36;;;;;;;25.77;12.00;;;;;;;1.07;100.00;101715.25;4999439;28;20226;-77
2020/12/21 09:55:03;;;;;;;31.57;12.43;;;;;;;1.13;100.00;101712.00;5005031;28;20201;-77
2020/12/21 09:57:29;;;;;;;32.17;14.30;;;;;;;1.10;100.00;101705.06;5004314;28;20262;-77
2020/12/21 09:59:55;;;;;;;28.07;11.67;;;;;;;1.08;100.00;101708.41;5004750;28;20665;-77
2020/12/21 10:02:21;;;;;;;25.60;10.83;;;;;;;1.13;100.00;101701.72;5002017;28;20232;-77
2020/12/21 10:04:47;;;;;;;25.60;10.83;;;;;;;1.10;100.00;101699.91;5001875;28;20262;-77
2020/12/21 10:07:13;;;;;;;26.40;10.33;;;;;;;1.09;100.00;101703.34;5008617;28;20683;-77
2020/12/21 10:09:39;;;;;;;26.30;10.73;;;;;;;1.10;100.00;101699.06;5002211;28;20564;-77
2020/12/21 10:12:05;;;;;;;23.47;10.33;;;;;;;1.18;100.00;101692.47;5006259;28;20278;-77
2020/12/21 10:14:31;;;;;;;28.23;12.33;;;;;;;1.26;100.00;101685.81;5005688;28;20208;-77
2020/12/21 10:16:57;;;;;;;29.67;12.37;;;;;;;1.34;100.00;101683.50;4988709;28;20641;-77
2020/12/21 10:19:23;;;;;;;32.70;13.00;;;;;;;1.42;100.00;101674.28;5004670;28;20263;-77
2020/12/21 10:21:49;;;;;;;30.50;13.73;;;;;;;1.52;100.00;101678.00;5004851;28;20202;-77
2020/12/21 10:24:15;;;;;;;30.33;13.33;;;;;;;1.67;100.00;101678.44;5006327;28;20299;-77
2020/12/21 10:26:42;;;;;;;25.40;11.80;;;;;;;1.79;100.00;101674.44;5001924;28;20243;-77
2020/12/21 10:29:08;;;;;;;31.70;12.40;;;;;;;1.87;100.00;101678.94;5008732;28;20224;-77
2020/12/21 10:31:34;;;;;;;28.63;13.17;;;;;;;1.96;100.00;101678.31;5003654;28;20218;-77
2020/12/21 10:34:00;;;;;;;31.90;13.43;;;;;;;2.11;100.00;101670.13;5007342;28;20206;-77
2020/12/21 10:36:26;;;;;;;32.53;11.93;;;;;;;2.21;100.00;101674.66;5005034;28;20677;-77
2020/12/21 10:38:52;;;;;;;26.53;10.97;;;;;;;2.33;99.85;101661.22;5004460;28;20216;-77
2020/12/21 10:41:17;;;;;;;26.67;11.43;;;;;;;2.36;99.67;101671.59;5009251;28;20224;-77
2020/12/21 10:43:44;;;;;;;29.70;12.10;;;;;;;2.50;99.08;101659.06;5005769;28;20207;-77
2020/12/21 10:46:10;;;;;;;24.73;10.97;;;;;;;2.62;98.50;101653.31;5005525;28;20206;-77
2020/12/21 10:48:36;;;;;;;27.30;10.43;;;;;;;2.73;98.35;101651.88;5003299;28;20205;-77
2020/12/21 10:51:02;;;;;;;24.33;10.67;;;;;;;2.77;97.59;101650.22;5005940;28;20286;-77
2020/12/21 10:53:28;;;;;;;28.40;11.13;;;;;;;2.81;97.85;101650.34;4984137;28;20656;-77
2020/12/21 10:55:54;;;;;;;27.30;10.93;;;;;;;2.93;97.10;101659.16;4995414;28;20217;-77
2020/12/21 10:58:20;;;;;;;28.73;11.27;;;;;;;3.03;96.78;101650.81;5002113;28;20208;-77
2020/12/21 11:00:46;;;;;;;27.50;10.30;;;;;;;3.13;96.05;101660.47;4990797;28;20711;-77
2020/12/21 11:03:13;;;;;;;26.20;10.23;;;;;;;3.12;96.41;101658.72;4999991;28;20211;-77
2020/12/21 11:05:38;;;;;;;27.70;10.43;;;;;;;3.14;96.27;101653.59;5013720;28;20202;-78
2020/12/21 11:08:07;;;;;;;30.83;9.77;;;;;;;3.21;95.24;101656.31;5004400;28;20255;-78
2020/12/21 11:10:33;;;;;;;29.63;10.80;;;;;;;3.25;95.74;101651.25;5002124;28;20239;-78
2020/12/21 11:12:58;;;;;;;25.03;10.30;;;;;;;3.32;95.18;101642.78;5004515;28;20196;-78
2020/12/21 11:15:25;;;;;;;23.83;9.93;;;;;;;3.34;95.25;101654.88;5006150;28;20748;-77